Briefing drone pour Ecully

Rechercher une autre localisation

Conditions de vol :


Nous sommes le : Samedi 02 juillet 2022
Il est 22:28 UTC (00:28 LT)

Lever de soleil : 03:29 UTC (05:29 LT)
Coucher de soleil : 20:00 UTC (22:00 LT)

Météo

L'essentiel des conditions de vol

VIGILANCE MÉTÉO FRANCE - Rhône (69)
Pas de vigilances particulieres
CARTE TEMSI
CARTES DES FRONTS
METAR de LFLL
LFLL 012200Z 35005KT CAVOK 17/10 Q1022 NOSIG

Date d'émission: 01/07/2022
Heure d'émission: 22:00 UTC
Vent: 350° pour 5 KT (9 km/h)
Visibilité horizontale: > 10 km
Plafond : Plafond et visibilité OK (CAVOK)
Température: 17 °C
Point de rosée: 10 °C
Humidité: 63%
Pression (QNH): 1022 hPa
Conditions: Pas de changement dans les 2 heures (NOSIG)
TAF de LFLL
LFLL 011700Z 0118/0224 35005KT CAVOK

Conditions prévues :

Heure d'émission : Bulletin éffectué le 01 à 18:00 UTC
Prévision : Valide du 01 a 18:00 UTC au 02 a 23:59 UTC
Vent : 350° pour 5 KT (9 km/h)
Visibilité : > 10 km
WEBCAM POUR ECULLY

Réglementation

Voler en sécurité

CARTES AERONAUTIQUE 1/500.000
CARTES VAC (LFLL)
SUP AIP




Chargement des AIP...
NOTAM (ECULLY + Terrain à proximité / FIR )




Chargement des NOTAMS...
CONTACT PREFECTURE 69


Avertissement : Les données mises à disposition sont indicatives. Oxygène Drone ne pourra être tenu responsable de dégâts causés aux biens et aux personnes.